Terminal Aerodrome Forecast
Issued by NWS

Home | Current Version | Previous Version | Graphics & Text | Print | Product List | Glossary On
Versions: 1 2 3 4 5 6 7 8 9 10 11 12 13 14 15
000
FTUS43 KGRB 190525
TAFRHI
TAF
KRHI 190525Z 1906/2006 VRB02KT 1SM BR SCT002
      TEMPO 1906/1910 1/4SM FG BKN002
     FM191000 VRB02KT 1SM BR SCT002
      TEMPO 1910/1913 1/4SM FG BKN002
     FM191300 34003KT P6SM SCT150
     FM191900 16006KT P6SM SCT150
     FM200000 17005KT P6SM SCT040 OVC100 PROB30 2002/2006 3SM -TSRA
      BKN040CB=

USA.gov is the U.S. government's official web portal to all federal, state and local government web resources and services.